createdAt,value
2022-12-26T00:02:12.017Z,6.03
2022-12-26T00:04:52.024Z,6.53
2022-12-26T00:07:25.176Z,6.70
2022-12-26T00:09:58.207Z,6.47
2022-12-26T00:12:30.744Z,8.13
2022-12-26T00:15:04.183Z,6.63
2022-12-26T00:17:36.951Z,5.85
2022-12-26T00:20:10.149Z,6.85
2022-12-26T00:22:42.675Z,6.45
2022-12-26T00:25:15.656Z,6.80
2022-12-26T00:27:48.226Z,5.53
2022-12-26T00:30:21.179Z,6.25
2022-12-26T00:32:54.076Z,5.93
2022-12-26T00:35:27.051Z,6.30
2022-12-26T00:37:59.845Z,5.65
2022-12-26T00:40:32.903Z,6.80
2022-12-26T00:43:05.431Z,5.68
2022-12-26T00:45:38.364Z,7.03
2022-12-26T00:48:10.840Z,6.55
2022-12-26T00:50:43.904Z,5.75
2022-12-26T00:53:17.593Z,5.03
2022-12-26T00:55:51.716Z,5.22
2022-12-26T00:58:24.881Z,6.47
2022-12-26T01:01:15.019Z,5.68
2022-12-26T01:03:47.957Z,5.80
2022-12-26T01:06:20.887Z,4.80
2022-12-26T01:08:54.108Z,4.65
2022-12-26T01:11:42.213Z,5.13
2022-12-26T01:14:15.879Z,4.07
2022-12-26T01:16:48.798Z,4.55
2022-12-26T01:19:21.400Z,4.40
2022-12-26T01:21:54.458Z,4.75
2022-12-26T01:24:27.033Z,4.50
2022-12-26T01:27:00.130Z,4.47
2022-12-26T01:29:32.723Z,4.32
2022-12-26T01:32:05.671Z,3.97
2022-12-26T01:34:38.294Z,4.93
2022-12-26T01:37:13.182Z,4.43
2022-12-26T01:39:45.796Z,4.20
2022-12-26T01:42:19.550Z,4.32
2022-12-26T01:44:55.116Z,4.90
2022-12-26T01:47:39.217Z,3.80
2022-12-26T01:50:18.336Z,4.38
2022-12-26T01:52:51.232Z,4.35
2022-12-26T01:55:24.558Z,4.28
2022-12-26T01:58:01.796Z,4.43
2022-12-26T02:00:36.392Z,4.72
2022-12-26T02:03:28.372Z,4.40
2022-12-26T02:06:01.730Z,3.67
2022-12-26T02:08:35.744Z,3.75
2022-12-26T02:11:08.520Z,3.95
2022-12-26T02:13:41.726Z,4.30
2022-12-26T02:16:15.477Z,4.45
2022-12-26T02:18:48.348Z,3.40
2022-12-26T02:21:23.876Z,5.78
2022-12-26T02:24:15.574Z,4.70
2022-12-26T02:27:06.654Z,5.00
2022-12-26T02:29:39.574Z,3.72
2022-12-26T02:32:24.857Z,3.72
2022-12-26T02:35:02.883Z,3.80
2022-12-26T02:37:35.439Z,4.40
2022-12-26T02:40:23.415Z,4.63
2022-12-26T02:42:55.890Z,3.85
2022-12-26T02:46:02.520Z,4.07
2022-12-26T02:48:53.789Z,4.53
2022-12-26T02:54:48.588Z,3.60
2022-12-26T02:57:42.327Z,3.55
2022-12-26T03:00:35.035Z,4.05
2022-12-26T03:03:26.359Z,3.90
2022-12-26T03:06:17.677Z,5.03
2022-12-26T03:09:19.075Z,3.85
2022-12-26T03:12:15.867Z,4.18
2022-12-26T03:14:51.088Z,4.25
2022-12-26T03:17:29.504Z,4.18
2022-12-26T03:20:05.916Z,3.72
2022-12-26T03:22:43.818Z,3.80
2022-12-26T03:25:39.213Z,3.97
2022-12-26T03:28:14.145Z,3.80
2022-12-26T03:30:50.050Z,3.65
2022-12-26T03:33:41.213Z,4.07
2022-12-26T03:36:16.298Z,3.60
2022-12-26T03:39:08.100Z,4.05
2022-12-26T03:42:22.514Z,3.40
2022-12-26T03:45:20.200Z,5.07
2022-12-26T03:48:11.404Z,4.35
2022-12-26T03:51:15.882Z,3.80
2022-12-26T03:54:09.679Z,3.60
2022-12-26T03:57:04.029Z,3.85
2022-12-26T04:00:15.627Z,3.83
2022-12-26T04:03:07.089Z,4.10
2022-12-26T04:08:57.891Z,4.70
2022-12-26T04:11:50.992Z,4.47
2022-12-26T04:14:53.628Z,3.38
2022-12-26T04:17:54.287Z,3.53
2022-12-26T04:20:46.410Z,4.13
2022-12-26T04:23:43.613Z,3.95
2022-12-26T04:26:40.759Z,4.03
2022-12-26T04:29:31.892Z,5.32
2022-12-26T04:32:25.709Z,4.82
2022-12-26T04:35:25.030Z,4.78
2022-12-26T04:38:16.569Z,4.65
2022-12-26T04:41:10.934Z,4.47
2022-12-26T04:44:01.904Z,4.47
2022-12-26T04:46:39.408Z,4.30
2022-12-26T04:49:31.726Z,5.18
2022-12-26T04:52:06.020Z,4.55
2022-12-26T04:54:38.758Z,5.43
2022-12-26T04:57:11.940Z,4.25
2022-12-26T04:59:44.474Z,4.47
2022-12-26T05:02:36.006Z,4.15
2022-12-26T05:05:27.554Z,4.47
2022-12-26T05:08:19.287Z,3.88
2022-12-26T05:10:52.239Z,4.50
2022-12-26T05:13:25.177Z,5.25
2022-12-26T05:16:16.355Z,5.13
2022-12-26T05:19:07.506Z,5.72
2022-12-26T05:21:58.742Z,6.65
2022-12-26T05:24:53.526Z,7.10
2022-12-26T05:27:48.193Z,7.13
2022-12-26T05:30:21.440Z,4.65
2022-12-26T05:33:12.334Z,5.72
2022-12-26T05:35:45.230Z,5.88
2022-12-26T05:38:17.953Z,5.90
2022-12-26T05:40:50.829Z,5.00
2022-12-26T05:43:23.572Z,4.38
2022-12-26T05:45:56.529Z,5.00
2022-12-26T05:48:29.084Z,5.88
2022-12-26T05:51:02.869Z,6.03
2022-12-26T05:53:35.526Z,5.03
2022-12-26T05:56:13.763Z,5.82
2022-12-26T05:58:46.589Z,5.30
2022-12-26T06:01:21.126Z,4.68
2022-12-26T06:03:54.967Z,4.72
2022-12-26T06:06:28.319Z,4.80
2022-12-26T06:09:00.896Z,4.75
2022-12-26T06:11:34.521Z,4.95
2022-12-26T06:14:07.067Z,4.60
2022-12-26T06:16:40.098Z,5.38
2022-12-26T06:19:12.734Z,5.13
2022-12-26T06:21:45.664Z,5.07
2022-12-26T06:24:18.220Z,5.18
2022-12-26T06:26:51.206Z,5.05
2022-12-26T06:29:23.765Z,4.50
2022-12-26T06:31:56.651Z,4.53
2022-12-26T06:34:30.917Z,5.35
2022-12-26T06:37:03.998Z,4.35
2022-12-26T06:39:36.663Z,4.43
2022-12-26T06:42:10.071Z,4.60
2022-12-26T06:44:43.759Z,5.07
2022-12-26T06:47:16.666Z,4.90
2022-12-26T06:49:49.249Z,4.88
2022-12-26T06:52:22.324Z,5.40
2022-12-26T06:54:54.835Z,5.45
2022-12-26T06:57:28.315Z,5.57
2022-12-26T07:00:00.905Z,4.40
2022-12-26T07:02:34.474Z,4.82
2022-12-26T07:05:07.403Z,4.55
2022-12-26T07:07:40.371Z,5.60
2022-12-26T07:10:14.310Z,4.93
2022-12-26T07:12:47.783Z,5.32
2022-12-26T07:15:20.492Z,4.55
2022-12-26T07:17:53.409Z,5.90
2022-12-26T07:20:26.058Z,4.72
2022-12-26T07:22:59.056Z,4.75
2022-12-26T07:25:31.655Z,7.13
2022-12-26T07:28:04.785Z,5.80
2022-12-26T07:30:37.354Z,7.07
2022-12-26T07:33:10.267Z,8.80
2022-12-26T07:35:43.190Z,7.63
2022-12-26T07:38:16.132Z,6.25
2022-12-26T07:40:48.923Z,6.40
2022-12-26T07:43:21.800Z,5.20
2022-12-26T07:45:58.377Z,6.00
2022-12-26T07:48:31.237Z,7.43
2022-12-26T07:51:03.842Z,5.38
2022-12-26T07:53:37.070Z,5.00
2022-12-26T07:56:09.652Z,6.07
2022-12-26T07:58:42.583Z,4.72
2022-12-26T08:01:15.189Z,5.13
2022-12-26T08:03:48.876Z,5.30
2022-12-26T08:06:21.871Z,4.13
2022-12-26T08:08:54.827Z,5.13
2022-12-26T08:11:33.538Z,5.13
2022-12-26T08:14:06.921Z,5.60
2022-12-26T08:16:39.476Z,6.93
2022-12-26T08:19:12.572Z,8.73
2022-12-26T08:21:45.042Z,7.05
2022-12-26T08:24:17.996Z,6.45
2022-12-26T08:26:50.502Z,5.63
2022-12-26T08:29:23.568Z,6.35
2022-12-26T08:31:56.181Z,6.30
2022-12-26T08:34:33.964Z,5.95
2022-12-26T08:37:06.658Z,6.03
2022-12-26T08:39:39.623Z,4.75
2022-12-26T08:42:12.141Z,5.97
2022-12-26T08:44:45.040Z,6.53
2022-12-26T08:47:17.677Z,5.50
2022-12-26T08:49:50.694Z,6.47
2022-12-26T08:52:23.270Z,6.47
2022-12-26T08:54:57.009Z,5.15
2022-12-26T08:57:29.811Z,5.32
2022-12-26T09:00:04.644Z,5.82
2022-12-26T09:02:37.488Z,6.47
2022-12-26T09:05:10.670Z,6.55
2022-12-26T09:07:44.231Z,7.50
2022-12-26T09:10:17.714Z,6.57
2022-12-26T09:12:50.291Z,7.22
2022-12-26T09:15:23.464Z,7.07
2022-12-26T09:17:56.057Z,4.35
2022-12-26T09:20:29.535Z,6.30
2022-12-26T09:23:02.147Z,6.65
2022-12-26T09:25:35.113Z,5.80
2022-12-26T09:28:07.610Z,7.53
2022-12-26T09:30:40.662Z,6.20
2022-12-26T09:33:13.243Z,6.28
2022-12-26T09:35:46.176Z,5.18
2022-12-26T09:38:20.602Z,5.15
2022-12-26T09:40:59.865Z,5.07
2022-12-26T09:43:35.473Z,5.95
2022-12-26T09:46:13.798Z,5.50
2022-12-26T09:48:49.579Z,5.47
2022-12-26T09:51:22.733Z,5.15
2022-12-26T09:53:55.516Z,5.43
2022-12-26T09:57:01.882Z,6.40
2022-12-26T09:59:26.375Z,7.57
2022-12-26T10:01:59.449Z,5.85
2022-12-26T10:04:32.138Z,6.30
2022-12-26T10:07:28.231Z,5.57
2022-12-26T10:10:01.339Z,4.80
2022-12-26T10:12:38.254Z,5.60
2022-12-26T10:15:18.192Z,5.30
2022-12-26T10:18:05.815Z,4.43
2022-12-26T10:20:57.238Z,4.90
2022-12-26T10:23:47.337Z,5.75
2022-12-26T10:26:23.414Z,10.63
2022-12-26T10:28:59.800Z,15.80
2022-12-26T10:31:37.580Z,9.80
2022-12-26T10:34:33.937Z,7.82
2022-12-26T10:37:14.397Z,6.00
2022-12-26T10:39:56.630Z,7.47
2022-12-26T10:42:32.221Z,5.97
2022-12-26T10:45:23.977Z,5.00
2022-12-26T10:47:56.943Z,4.63
2022-12-26T10:50:32.922Z,3.97
2022-12-26T10:53:07.265Z,4.40
2022-12-26T10:55:40.262Z,4.07
2022-12-26T10:58:20.632Z,4.25
2022-12-26T11:00:53.710Z,6.55
2022-12-26T11:03:26.351Z,4.53
2022-12-26T11:06:08.834Z,4.43
2022-12-26T11:08:49.759Z,4.13
2022-12-26T11:11:25.059Z,4.20
2022-12-26T11:14:03.206Z,4.90
2022-12-26T11:16:38.963Z,3.78
2022-12-26T11:19:26.730Z,3.28
2022-12-26T11:22:15.057Z,4.40
2022-12-26T11:25:02.311Z,4.18
2022-12-26T11:27:35.932Z,3.42
2022-12-26T11:30:14.459Z,3.53
2022-12-26T11:32:50.121Z,4.10
2022-12-26T11:35:24.468Z,3.92
2022-12-26T11:37:58.381Z,4.38
2022-12-26T11:40:38.560Z,4.25
2022-12-26T11:43:15.867Z,4.72
2022-12-26T11:45:50.295Z,4.32
2022-12-26T11:48:24.720Z,5.68
2022-12-26T11:50:57.382Z,3.67
2022-12-26T11:53:32.137Z,3.67
2022-12-26T11:56:06.067Z,4.00
2022-12-26T11:58:39.529Z,4.22
2022-12-26T12:01:16.317Z,4.10
2022-12-26T12:03:50.324Z,4.72
2022-12-26T12:06:38.075Z,5.35
2022-12-26T12:09:29.927Z,4.00
2022-12-26T12:12:17.869Z,4.70
2022-12-26T12:14:57.727Z,4.63
2022-12-26T12:17:36.673Z,4.15
2022-12-26T12:20:18.976Z,4.05
2022-12-26T12:23:33.099Z,4.25
2022-12-26T12:26:06.175Z,3.38
2022-12-26T12:28:44.516Z,3.40
2022-12-26T12:31:36.276Z,3.70
2022-12-26T12:36:53.247Z,2.78
2022-12-26T12:39:38.843Z,2.10
2022-12-26T12:42:23.994Z,2.72
2022-12-26T12:44:59.581Z,1.98
2022-12-26T12:47:45.927Z,2.65
2022-12-26T12:50:33.826Z,2.25
2022-12-26T12:53:12.896Z,2.35
2022-12-26T12:55:45.457Z,2.17
2022-12-26T12:58:41.722Z,2.15
2022-12-26T13:01:18.192Z,2.63
2022-12-26T13:03:54.647Z,3.15
2022-12-26T13:06:36.479Z,3.22
2022-12-26T13:09:35.667Z,2.85
2022-12-26T13:12:09.989Z,2.67
2022-12-26T13:14:46.915Z,3.95
2022-12-26T13:17:22.917Z,3.97
2022-12-26T13:20:02.495Z,5.20
2022-12-26T13:22:57.783Z,5.25
2022-12-26T13:25:36.813Z,5.00
2022-12-26T13:28:16.362Z,6.55
2022-12-26T13:30:56.021Z,3.83
2022-12-26T13:33:29.318Z,7.03
2022-12-26T13:36:05.956Z,9.27
2022-12-26T13:38:54.272Z,8.45
2022-12-26T13:41:46.595Z,5.78
2022-12-26T13:44:19.097Z,5.05
2022-12-26T13:46:52.004Z,10.27
2022-12-26T13:49:40.927Z,9.65
2022-12-26T13:52:20.135Z,6.50
2022-12-26T13:54:52.721Z,7.28
2022-12-26T13:57:33.495Z,6.03
2022-12-26T14:00:12.916Z,5.45
2022-12-26T14:03:17.313Z,6.13
2022-12-26T14:05:55.062Z,5.00
2022-12-26T14:08:29.877Z,4.30
2022-12-26T14:11:02.599Z,4.00
2022-12-26T14:13:47.790Z,3.97
2022-12-26T14:16:23.368Z,3.55
2022-12-26T14:19:07.837Z,5.75
2022-12-26T14:21:46.315Z,8.05
2022-12-26T14:24:24.541Z,3.25
2022-12-26T14:27:00.205Z,3.72
2022-12-26T14:29:52.108Z,3.95
2022-12-26T14:32:43.133Z,3.72
2022-12-26T14:35:28.626Z,3.70
2022-12-26T14:38:10.332Z,3.50
2022-12-26T14:40:58.240Z,3.83
2022-12-26T14:43:33.947Z,3.38
2022-12-26T14:46:26.901Z,3.65
2022-12-26T14:49:00.804Z,2.58
2022-12-26T14:51:36.736Z,3.10
2022-12-26T14:54:34.186Z,2.22
2022-12-26T14:57:27.329Z,3.00
2022-12-26T15:00:11.221Z,2.38
2022-12-26T15:02:46.960Z,5.22
2022-12-26T15:05:26.338Z,7.30
2022-12-26T15:08:08.365Z,6.20
2022-12-26T15:10:59.707Z,7.43
2022-12-26T15:13:46.561Z,4.63
2022-12-26T15:16:42.040Z,5.45
2022-12-26T15:19:17.803Z,6.75
2022-12-26T15:22:02.371Z,3.70
2022-12-26T15:25:17.737Z,3.95
2022-12-26T15:27:55.522Z,3.03
2022-12-26T15:30:51.627Z,4.00
2022-12-26T15:33:29.044Z,4.30
2022-12-26T15:36:07.415Z,3.47
2022-12-26T15:38:49.444Z,2.28
2022-12-26T15:41:34.279Z,2.63
2022-12-26T15:44:15.666Z,3.67
2022-12-26T15:47:24.192Z,3.22
2022-12-26T15:50:15.354Z,3.03
2022-12-26T15:53:02.765Z,2.50
2022-12-26T15:55:35.328Z,3.72
2022-12-26T15:58:08.275Z,3.28
2022-12-26T16:00:48.544Z,3.97
2022-12-26T16:03:41.640Z,2.80
2022-12-26T16:06:14.342Z,3.53
2022-12-26T16:08:47.344Z,3.60
2022-12-26T16:11:21.572Z,2.67
2022-12-26T16:13:59.179Z,2.88
2022-12-26T16:16:34.672Z,2.40
2022-12-26T16:19:24.052Z,3.10
2022-12-26T16:22:19.789Z,3.15
2022-12-26T16:24:53.675Z,2.85
2022-12-26T16:27:26.396Z,2.42
2022-12-26T16:30:02.077Z,2.47
2022-12-26T16:32:39.176Z,2.38
2022-12-26T16:35:23.381Z,2.58
2022-12-26T16:37:59.306Z,2.47
2022-12-26T16:40:40.619Z,2.85
2022-12-26T16:43:19.124Z,2.10
2022-12-26T16:45:58.966Z,2.38
2022-12-26T16:48:32.754Z,3.38
2022-12-26T16:51:28.775Z,2.70
2022-12-26T16:54:28.407Z,1.88
2022-12-26T16:57:18.587Z,2.03
2022-12-26T16:59:52.967Z,2.00
2022-12-26T17:02:27.895Z,2.25
2022-12-26T17:05:05.173Z,2.47
2022-12-26T17:07:39.812Z,2.65
2022-12-26T17:10:29.587Z,2.45
2022-12-26T17:13:05.786Z,3.15
2022-12-26T17:15:46.739Z,3.28
2022-12-26T17:18:30.950Z,3.40
2022-12-26T17:21:21.024Z,2.72
2022-12-26T17:24:05.899Z,2.33
2022-12-26T17:26:38.964Z,3.05
2022-12-26T17:29:30.924Z,1.88
2022-12-26T17:32:07.265Z,1.33
2022-12-26T17:34:40.673Z,2.22
2022-12-26T17:37:31.652Z,2.08
2022-12-26T17:40:13.931Z,2.03
2022-12-26T17:45:26.449Z,2.33
2022-12-26T17:47:59.458Z,1.75
2022-12-26T17:50:36.559Z,1.90
2022-12-26T17:53:12.231Z,1.95
2022-12-26T17:55:45.162Z,2.80
2022-12-26T17:58:17.943Z,2.58
2022-12-26T18:00:51.511Z,2.40
2022-12-26T18:03:24.148Z,2.70
2022-12-26T18:05:57.723Z,2.00
2022-12-26T18:08:34.461Z,2.47
2022-12-26T18:11:10.427Z,2.33
2022-12-26T18:13:43.557Z,2.05
2022-12-26T18:16:17.972Z,2.00
2022-12-26T18:18:50.691Z,2.15
2022-12-26T18:21:23.617Z,1.40
2022-12-26T18:23:56.207Z,1.85
2022-12-26T18:26:29.616Z,2.03
2022-12-26T18:29:02.833Z,1.52
2022-12-26T18:31:35.879Z,2.05
2022-12-26T18:34:08.449Z,1.83
2022-12-26T18:36:42.734Z,2.42
2022-12-26T18:39:16.129Z,1.70
2022-12-26T18:41:49.153Z,1.65
2022-12-26T18:44:21.694Z,2.08
2022-12-26T18:46:54.660Z,1.52
2022-12-26T18:49:27.321Z,1.38
2022-12-26T18:52:00.206Z,1.27
2022-12-26T18:54:33.150Z,1.90
2022-12-26T18:57:06.917Z,1.70
2022-12-26T18:59:39.560Z,1.80
2022-12-26T19:02:17.138Z,3.13
2022-12-26T19:04:49.690Z,2.45
2022-12-26T19:07:22.649Z,1.63
2022-12-26T19:09:56.046Z,2.50
2022-12-26T19:12:29.027Z,3.03
2022-12-26T19:15:01.797Z,2.28
2022-12-26T19:17:35.380Z,2.45
2022-12-26T19:20:17.632Z,2.30
2022-12-26T19:22:51.915Z,7.22
2022-12-26T19:25:25.968Z,3.17
2022-12-26T19:27:58.891Z,3.85
2022-12-26T19:30:38.314Z,3.03
2022-12-26T19:33:12.265Z,2.92
2022-12-26T19:35:44.804Z,3.33
2022-12-26T19:38:17.796Z,2.28
2022-12-26T19:40:50.345Z,2.13
2022-12-26T19:43:23.241Z,2.08
2022-12-26T19:45:59.897Z,2.60
2022-12-26T19:48:33.742Z,2.92
2022-12-26T19:51:08.191Z,2.58
2022-12-26T19:53:42.206Z,2.78
2022-12-26T19:56:18.440Z,4.18
2022-12-26T19:58:56.438Z,3.30
2022-12-26T20:01:30.723Z,3.17
2022-12-26T20:04:05.260Z,4.85
2022-12-26T20:06:38.298Z,4.78
2022-12-26T20:09:12.768Z,4.55
2022-12-26T20:11:54.335Z,5.15
2022-12-26T20:14:27.503Z,4.93
2022-12-26T20:17:08.938Z,7.15
2022-12-26T20:19:44.299Z,9.05
2022-12-26T20:22:16.857Z,12.75
2022-12-26T20:24:49.862Z,9.07
2022-12-26T20:27:22.614Z,9.18
2022-12-26T20:29:55.646Z,6.88
2022-12-26T20:32:28.287Z,5.00
2022-12-26T20:35:01.275Z,3.75
2022-12-26T20:37:34.448Z,5.40
2022-12-26T20:40:07.728Z,5.95
2022-12-26T20:42:40.216Z,2.97
2022-12-26T20:45:13.135Z,5.38
2022-12-26T20:47:45.602Z,4.35
2022-12-26T20:50:18.738Z,3.45
2022-12-26T20:52:51.307Z,3.72
2022-12-26T20:55:24.161Z,3.53
2022-12-26T20:57:56.643Z,2.80
2022-12-26T21:00:29.582Z,3.53
2022-12-26T21:03:02.143Z,3.20
2022-12-26T21:05:35.325Z,2.95
2022-12-26T21:08:08.449Z,2.88
2022-12-26T21:10:41.342Z,2.38
2022-12-26T21:13:14.131Z,2.80
2022-12-26T21:15:47.022Z,3.42
2022-12-26T21:18:19.525Z,3.15
2022-12-26T21:20:52.660Z,3.72
2022-12-26T21:23:25.289Z,3.83
2022-12-26T21:25:58.646Z,4.55
2022-12-26T21:28:31.565Z,5.00
2022-12-26T21:31:06.325Z,5.22
2022-12-26T21:33:44.201Z,5.28
2022-12-26T21:36:17.844Z,6.32
2022-12-26T21:38:50.440Z,6.20
2022-12-26T21:41:24.263Z,6.45
2022-12-26T21:43:56.730Z,6.53
2022-12-26T21:46:29.762Z,6.10
2022-12-26T21:49:02.425Z,4.93
2022-12-26T21:51:35.338Z,5.05
2022-12-26T21:54:26.316Z,3.50
2022-12-26T21:56:59.634Z,3.33
2022-12-26T21:59:50.643Z,5.03
2022-12-26T22:02:43.210Z,4.93
2022-12-26T22:05:16.643Z,8.10
2022-12-26T22:07:52.542Z,8.35
2022-12-26T22:10:45.393Z,5.70
2022-12-26T22:13:18.751Z,3.85
2022-12-26T22:16:04.651Z,4.20
2022-12-26T22:18:41.978Z,4.40
2022-12-26T22:21:18.514Z,3.15
2022-12-26T22:23:52.223Z,3.65
2022-12-26T22:26:25.007Z,3.70
2022-12-26T22:28:58.602Z,3.17
2022-12-26T22:31:32.582Z,4.18
2022-12-26T22:34:06.798Z,3.95
2022-12-26T22:36:40.697Z,3.08
2022-12-26T22:39:16.567Z,3.92
2022-12-26T22:41:49.136Z,3.05
2022-12-26T22:44:22.020Z,4.38
2022-12-26T22:46:54.567Z,5.18
2022-12-26T22:49:27.931Z,4.22
2022-12-26T22:52:00.484Z,3.58
2022-12-26T22:54:33.487Z,2.97
2022-12-26T22:57:06.051Z,2.83
2022-12-26T23:00:07.668Z,2.95
2022-12-26T23:02:31.657Z,3.05
2022-12-26T23:05:05.624Z,1.95
2022-12-26T23:07:38.651Z,2.75
2022-12-26T23:10:16.881Z,3.00
2022-12-26T23:12:49.859Z,2.30
2022-12-26T23:15:23.752Z,1.75
2022-12-26T23:18:41.089Z,2.15
2022-12-26T23:21:39.058Z,2.35
2022-12-26T23:24:18.218Z,2.50
2022-12-26T23:26:55.751Z,1.95
2022-12-26T23:29:47.004Z,2.20
2022-12-26T23:32:19.920Z,2.63
2022-12-26T23:34:52.452Z,2.33
2022-12-26T23:37:25.586Z,2.75
2022-12-26T23:39:58.449Z,3.15
2022-12-26T23:42:31.390Z,3.05
2022-12-26T23:45:04.211Z,3.15
2022-12-26T23:47:37.815Z,2.92
2022-12-26T23:50:11.036Z,2.65
2022-12-26T23:52:44.399Z,3.15
2022-12-26T23:55:17.517Z,3.33
2022-12-26T23:57:50.611Z,3.08
